Cedarville, OH (45314)

10:12 AM EST on March 03, 2015 (GMT -0500)
Xenia Township | Change Station
CLOSE
Current Station
Personal Weather Station
Location: Xenia, OH
Elevation: 1033 ft
Nearby Weather Stations
Active Advisory: Freezing Rain Advisory

Elev 1033 ft 39.71 °N, 83.85 °W | Updated 2 minutes ago

Overcast
Overcast
28.6 °F
Feels Like 23 °F
N
5.0
Wind Variable Wind from WNW
Gusts 8.0 mph

Today
High -- | Low -- °F
--% Chance of Precip.
Yesterday
High -- | Low -- °F
Precip. -- in
7:05 AM 6:29 PM
Waxing Gibbous, 96% visible
Pressure 30.08 in
Visibility 4.0 miles
Clouds Mostly Cloudy 3000 ft
Overcast 3600 ft
Windchill 23 °F
Dew Point 23 °F
Humidity 78%
Rainfall 0.00 in
Snow Depth Not available.
UV 1 out of 12
Pollen 1.30 out of 12
Air Quality Not available.
Flu Activity Not available.
METAR KSGH 031456Z AUTO 13008KT 4SM HZ BKN030 OVC036 M02/M06 A3004 RMK AO2 58025 T10221061 OVC V BKN PRESFR SLP186

More Conditions Fewer Conditions

Pressure 30.08 in
Visibility 4.0 miles
Clouds Mostly Cloudy 3000 ft
Overcast 3600 ft
Windchill 23 °F
Dew Point 23 °F
Humidity 78%
Rainfall 0.00 in
Snow Depth Not available.
UV 1 out of 12
Pollen 1.30 out of 12
Air Quality Not available.
Flu Activity Not available.
METAR KSGH 031456Z AUTO 13008KT 4SM HZ BKN030 OVC036 M02/M06 A3004 RMK AO2 58025 T10221061 OVC V BKN PRESFR SLP186

More Conditions Fewer Conditions

10-Day Weather Forecast

Almanac

Astronomy

Mar. 03, 2015 Rise Set
Actual Time
Civil Twilight
Nautical Twilight
Astronomical Twilight
Moon
Length of Visible Light
Length of Day
Tomorrow will be .
, % of the Moon is Illuminated

Today's Extremes

State Highs State Lows

Community

WunderPhotos

Upload Photos

1,802,136 photos uploaded!

WunderBlogs® & News

Nearby

Air Quality

  Air Quality AQ Index Pollutant
Not available.

Snow Depth

Station Depth Elevation

Earthquake Activity

City Distance Mag. Time & Date
Minimum magnitude displayed is 2.5.

Coastal Water Temperatures

Place Temperature

Nearby Weather Stations

Freezing Rain Advisory
Statement as of 9:53 AM EST on March 03, 2015

... Freezing Rain Advisory remains in effect until 1 PM EST this
afternoon...

* hazard types... light ice accumulation.

* Accumulations... up to five hundredths of an inch of ice.

* Timing... areas of light freezing rain or drizzle will continue
this morning... changing to rain by early afternoon.

* Impacts... light amounts of icing will cause some roads and
sidewalks to become slippery. Use caution when outdoors as
areas that look wet may be icy. If you must drive... be
cautious as you may encounter ice on roads.

Precautionary/preparedness actions...

A Freezing Rain Advisory means that periods of freezing rain or
freezing drizzle will cause travel difficulties. Be prepared for
slippery roads. Slow down and use caution while driving.